sensor_id;sensor_type;location;lat;lon;timestamp;P1;durP1;ratioP1;P2;durP2;ratioP2
7471;SDS011;3777;48.722;8.110;2022-09-17T00:02:25;4.23;;;1.30;;
7471;SDS011;3777;48.722;8.110;2022-09-17T00:04:54;1.47;;;1.37;;
7471;SDS011;3777;48.722;8.110;2022-09-17T00:07:21;1.47;;;1.33;;
7471;SDS011;3777;48.722;8.110;2022-09-17T00:09:48;3.13;;;1.30;;
7471;SDS011;3777;48.722;8.110;2022-09-17T00:12:15;2.03;;;1.10;;
7471;SDS011;3777;48.722;8.110;2022-09-17T00:14:44;3.97;;;1.23;;
7471;SDS011;3777;48.722;8.110;2022-09-17T00:17:11;2.93;;;1.40;;
7471;SDS011;3777;48.722;8.110;2022-09-17T00:19:38;2.30;;;1.27;;
7471;SDS011;3777;48.722;8.110;2022-09-17T00:22:05;3.07;;;1.20;;
7471;SDS011;3777;48.722;8.110;2022-09-17T00:24:31;1.40;;;1.20;;
7471;SDS011;3777;48.722;8.110;2022-09-17T00:26:58;2.70;;;1.47;;
7471;SDS011;3777;48.722;8.110;2022-09-17T00:29:25;1.53;;;1.20;;
7471;SDS011;3777;48.722;8.110;2022-09-17T00:31:54;3.57;;;1.30;;
7471;SDS011;3777;48.722;8.110;2022-09-17T00:34:21;3.77;;;1.10;;
7471;SDS011;3777;48.722;8.110;2022-09-17T00:36:47;5.33;;;1.33;;
7471;SDS011;3777;48.722;8.110;2022-09-17T00:39:14;1.93;;;1.30;;
7471;SDS011;3777;48.722;8.110;2022-09-17T00:41:41;1.10;;;1.00;;
7471;SDS011;3777;48.722;8.110;2022-09-17T00:47:23;1.77;;;1.00;;
7471;SDS011;3777;48.722;8.110;2022-09-17T00:49:55;2.57;;;1.20;;
7471;SDS011;3777;48.722;8.110;2022-09-17T00:52:26;2.30;;;1.40;;
7471;SDS011;3777;48.722;8.110;2022-09-17T00:54:58;2.57;;;1.20;;
7471;SDS011;3777;48.722;8.110;2022-09-17T00:57:29;1.70;;;1.10;;
7471;SDS011;3777;48.722;8.110;2022-09-17T00:59:56;4.63;;;1.30;;
7471;SDS011;3777;48.722;8.110;2022-09-17T01:02:25;3.60;;;1.40;;
7471;SDS011;3777;48.722;8.110;2022-09-17T01:04:52;4.07;;;1.50;;
7471;SDS011;3777;48.722;8.110;2022-09-17T01:07:27;2.77;;;1.30;;
7471;SDS011;3777;48.722;8.110;2022-09-17T01:10:07;2.60;;;1.27;;
7471;SDS011;3777;48.722;8.110;2022-09-17T01:12:49;2.57;;;1.40;;
7471;SDS011;3777;48.722;8.110;2022-09-17T01:15:26;2.20;;;1.30;;
7471;SDS011;3777;48.722;8.110;2022-09-17T01:18:05;2.87;;;1.60;;
7471;SDS011;3777;48.722;8.110;2022-09-17T01:20:58;3.63;;;1.57;;
7471;SDS011;3777;48.722;8.110;2022-09-17T01:23:53;2.60;;;1.20;;
7471;SDS011;3777;48.722;8.110;2022-09-17T01:26:44;2.10;;;1.30;;
7471;SDS011;3777;48.722;8.110;2022-09-17T01:29:29;1.90;;;1.30;;
7471;SDS011;3777;48.722;8.110;2022-09-17T01:32:06;2.10;;;1.30;;
7471;SDS011;3777;48.722;8.110;2022-09-17T01:34:39;2.77;;;1.40;;
7471;SDS011;3777;48.722;8.110;2022-09-17T01:37:12;4.03;;;1.53;;
7471;SDS011;3777;48.722;8.110;2022-09-17T01:39:43;2.17;;;1.60;;
7471;SDS011;3777;48.722;8.110;2022-09-17T01:42:15;1.80;;;1.50;;
7471;SDS011;3777;48.722;8.110;2022-09-17T01:44:49;1.80;;;1.43;;
7471;SDS011;3777;48.722;8.110;2022-09-17T01:47:23;3.00;;;1.60;;
7471;SDS011;3777;48.722;8.110;2022-09-17T01:49:54;3.07;;;1.50;;
7471;SDS011;3777;48.722;8.110;2022-09-17T01:52:26;4.37;;;1.63;;
7471;SDS011;3777;48.722;8.110;2022-09-17T01:54:57;2.57;;;1.40;;
7471;SDS011;3777;48.722;8.110;2022-09-17T01:57:30;3.10;;;1.43;;
7471;SDS011;3777;48.722;8.110;2022-09-17T02:00:03;2.93;;;1.60;;
7471;SDS011;3777;48.722;8.110;2022-09-17T02:02:34;3.00;;;1.47;;
7471;SDS011;3777;48.722;8.110;2022-09-17T02:05:05;3.97;;;1.70;;
7471;SDS011;3777;48.722;8.110;2022-09-17T02:07:37;2.87;;;1.40;;
7471;SDS011;3777;48.722;8.110;2022-09-17T02:10:08;3.03;;;1.30;;
7471;SDS011;3777;48.722;8.110;2022-09-17T02:12:40;2.53;;;1.30;;
7471;SDS011;3777;48.722;8.110;2022-09-17T02:15:11;2.30;;;1.40;;
7471;SDS011;3777;48.722;8.110;2022-09-17T02:17:45;2.40;;;1.43;;
7471;SDS011;3777;48.722;8.110;2022-09-17T02:20:15;4.47;;;1.50;;
7471;SDS011;3777;48.722;8.110;2022-09-17T02:22:46;4.17;;;1.50;;
7471;SDS011;3777;48.722;8.110;2022-09-17T02:25:17;2.40;;;1.37;;
7471;SDS011;3777;48.722;8.110;2022-09-17T02:27:51;3.80;;;1.60;;
7471;SDS011;3777;48.722;8.110;2022-09-17T02:30:26;3.13;;;1.57;;
7471;SDS011;3777;48.722;8.110;2022-09-17T02:32:57;3.07;;;1.47;;
7471;SDS011;3777;48.722;8.110;2022-09-17T02:35:24;4.07;;;1.40;;
7471;SDS011;3777;48.722;8.110;2022-09-17T02:37:51;3.80;;;1.70;;
7471;SDS011;3777;48.722;8.110;2022-09-17T02:40:18;4.23;;;1.60;;
7471;SDS011;3777;48.722;8.110;2022-09-17T02:43:01;3.17;;;1.80;;
7471;SDS011;3777;48.722;8.110;2022-09-17T02:45:39;2.63;;;1.50;;
7471;SDS011;3777;48.722;8.110;2022-09-17T02:48:22;4.00;;;1.80;;
7471;SDS011;3777;48.722;8.110;2022-09-17T02:51:04;4.67;;;1.57;;
7471;SDS011;3777;48.722;8.110;2022-09-17T02:53:47;4.93;;;1.60;;
7471;SDS011;3777;48.722;8.110;2022-09-17T02:56:24;2.70;;;1.60;;
7471;SDS011;3777;48.722;8.110;2022-09-17T02:59:01;2.70;;;1.40;;
7471;SDS011;3777;48.722;8.110;2022-09-17T03:01:38;4.40;;;1.77;;
7471;SDS011;3777;48.722;8.110;2022-09-17T03:04:11;3.20;;;1.67;;
7471;SDS011;3777;48.722;8.110;2022-09-17T03:06:41;3.33;;;1.70;;
7471;SDS011;3777;48.722;8.110;2022-09-17T03:09:11;2.60;;;1.53;;
7471;SDS011;3777;48.722;8.110;2022-09-17T03:11:39;4.47;;;1.50;;
7471;SDS011;3777;48.722;8.110;2022-09-17T03:14:07;1.93;;;1.37;;
7471;SDS011;3777;48.722;8.110;2022-09-17T03:16:34;3.37;;;1.53;;
7471;SDS011;3777;48.722;8.110;2022-09-17T03:19:01;5.73;;;1.97;;
7471;SDS011;3777;48.722;8.110;2022-09-17T03:21:29;3.53;;;1.60;;
7471;SDS011;3777;48.722;8.110;2022-09-17T03:23:56;6.30;;;1.77;;
7471;SDS011;3777;48.722;8.110;2022-09-17T03:26:24;2.40;;;1.70;;
7471;SDS011;3777;48.722;8.110;2022-09-17T03:28:51;3.77;;;1.90;;
7471;SDS011;3777;48.722;8.110;2022-09-17T03:31:18;3.23;;;1.70;;
7471;SDS011;3777;48.722;8.110;2022-09-17T03:33:45;4.10;;;2.10;;
7471;SDS011;3777;48.722;8.110;2022-09-17T03:36:12;4.17;;;1.80;;
7471;SDS011;3777;48.722;8.110;2022-09-17T03:38:41;3.00;;;1.80;;
7471;SDS011;3777;48.722;8.110;2022-09-17T03:41:08;2.47;;;1.80;;
7471;SDS011;3777;48.722;8.110;2022-09-17T03:43:35;4.73;;;1.77;;
7471;SDS011;3777;48.722;8.110;2022-09-17T03:46:04;4.37;;;2.30;;
7471;SDS011;3777;48.722;8.110;2022-09-17T03:48:31;2.90;;;1.90;;
7471;SDS011;3777;48.722;8.110;2022-09-17T03:51:01;3.70;;;2.17;;
7471;SDS011;3777;48.722;8.110;2022-09-17T03:53:28;4.60;;;2.37;;
7471;SDS011;3777;48.722;8.110;2022-09-17T03:55:58;4.30;;;2.30;;
7471;SDS011;3777;48.722;8.110;2022-09-17T03:58:25;5.17;;;2.10;;
7471;SDS011;3777;48.722;8.110;2022-09-17T04:00:53;3.20;;;1.90;;
7471;SDS011;3777;48.722;8.110;2022-09-17T04:03:22;2.77;;;2.00;;
7471;SDS011;3777;48.722;8.110;2022-09-17T04:05:49;3.03;;;1.87;;
7471;SDS011;3777;48.722;8.110;2022-09-17T04:08:16;2.90;;;1.90;;
7471;SDS011;3777;48.722;8.110;2022-09-17T04:10:44;4.40;;;2.53;;
7471;SDS011;3777;48.722;8.110;2022-09-17T04:13:13;4.37;;;2.30;;
7471;SDS011;3777;48.722;8.110;2022-09-17T04:15:42;3.97;;;1.97;;
7471;SDS011;3777;48.722;8.110;2022-09-17T04:18:09;5.03;;;2.30;;
7471;SDS011;3777;48.722;8.110;2022-09-17T04:20:37;3.10;;;2.00;;
7471;SDS011;3777;48.722;8.110;2022-09-17T04:23:04;3.53;;;2.20;;
7471;SDS011;3777;48.722;8.110;2022-09-17T04:25:31;3.37;;;2.33;;
7471;SDS011;3777;48.722;8.110;2022-09-17T04:27:58;4.97;;;2.57;;
7471;SDS011;3777;48.722;8.110;2022-09-17T04:30:26;5.00;;;2.10;;
7471;SDS011;3777;48.722;8.110;2022-09-17T04:32:53;4.60;;;2.40;;
7471;SDS011;3777;48.722;8.110;2022-09-17T04:35:20;2.97;;;2.37;;
7471;SDS011;3777;48.722;8.110;2022-09-17T04:37:51;4.30;;;2.43;;
7471;SDS011;3777;48.722;8.110;2022-09-17T04:40:18;4.07;;;2.30;;
7471;SDS011;3777;48.722;8.110;2022-09-17T04:42:45;2.93;;;2.30;;
7471;SDS011;3777;48.722;8.110;2022-09-17T04:45:12;4.97;;;2.70;;
7471;SDS011;3777;48.722;8.110;2022-09-17T04:47:41;4.17;;;2.40;;
7471;SDS011;3777;48.722;8.110;2022-09-17T04:50:08;6.33;;;2.50;;
7471;SDS011;3777;48.722;8.110;2022-09-17T04:52:35;2.83;;;2.03;;
7471;SDS011;3777;48.722;8.110;2022-09-17T04:55:03;3.87;;;2.50;;
7471;SDS011;3777;48.722;8.110;2022-09-17T04:57:30;3.40;;;2.37;;
7471;SDS011;3777;48.722;8.110;2022-09-17T04:59:57;5.77;;;3.10;;
7471;SDS011;3777;48.722;8.110;2022-09-17T05:02:24;5.20;;;2.87;;
7471;SDS011;3777;48.722;8.110;2022-09-17T05:04:52;3.90;;;2.70;;
7471;SDS011;3777;48.722;8.110;2022-09-17T05:07:21;6.27;;;2.60;;
7471;SDS011;3777;48.722;8.110;2022-09-17T05:09:47;4.03;;;2.50;;
7471;SDS011;3777;48.722;8.110;2022-09-17T05:12:14;6.17;;;2.67;;
7471;SDS011;3777;48.722;8.110;2022-09-17T05:14:41;4.47;;;2.97;;
7471;SDS011;3777;48.722;8.110;2022-09-17T05:17:08;5.00;;;2.70;;
7471;SDS011;3777;48.722;8.110;2022-09-17T05:19:35;7.30;;;2.60;;
7471;SDS011;3777;48.722;8.110;2022-09-17T05:22:04;3.93;;;2.77;;
7471;SDS011;3777;48.722;8.110;2022-09-17T05:24:30;4.37;;;2.63;;
7471;SDS011;3777;48.722;8.110;2022-09-17T05:26:58;4.43;;;2.27;;
7471;SDS011;3777;48.722;8.110;2022-09-17T05:29:25;4.67;;;2.70;;
7471;SDS011;3777;48.722;8.110;2022-09-17T05:31:52;4.23;;;2.60;;
7471;SDS011;3777;48.722;8.110;2022-09-17T05:34:18;5.00;;;2.70;;
7471;SDS011;3777;48.722;8.110;2022-09-17T05:36:45;4.20;;;2.50;;
7471;SDS011;3777;48.722;8.110;2022-09-17T05:39:14;5.50;;;2.33;;
7471;SDS011;3777;48.722;8.110;2022-09-17T05:41:41;5.50;;;2.57;;
7471;SDS011;3777;48.722;8.110;2022-09-17T05:44:08;4.13;;;2.50;;
7471;SDS011;3777;48.722;8.110;2022-09-17T05:46:35;6.20;;;2.40;;
7471;SDS011;3777;48.722;8.110;2022-09-17T05:49:02;3.83;;;2.50;;
7471;SDS011;3777;48.722;8.110;2022-09-17T05:51:29;5.47;;;2.33;;
7471;SDS011;3777;48.722;8.110;2022-09-17T05:53:56;4.90;;;2.47;;
7471;SDS011;3777;48.722;8.110;2022-09-17T05:56:25;3.43;;;2.00;;
7471;SDS011;3777;48.722;8.110;2022-09-17T05:58:54;3.93;;;2.20;;
7471;SDS011;3777;48.722;8.110;2022-09-17T06:01:21;7.53;;;2.87;;
7471;SDS011;3777;48.722;8.110;2022-09-17T06:03:48;3.57;;;2.00;;
7471;SDS011;3777;48.722;8.110;2022-09-17T06:06:15;3.33;;;2.00;;
7471;SDS011;3777;48.722;8.110;2022-09-17T06:08:42;2.97;;;1.70;;
7471;SDS011;3777;48.722;8.110;2022-09-17T06:11:12;4.50;;;2.33;;
7471;SDS011;3777;48.722;8.110;2022-09-17T06:13:40;3.73;;;2.00;;
7471;SDS011;3777;48.722;8.110;2022-09-17T06:16:07;5.33;;;2.40;;
7471;SDS011;3777;48.722;8.110;2022-09-17T06:18:34;3.37;;;2.00;;
7471;SDS011;3777;48.722;8.110;2022-09-17T06:21:02;5.03;;;2.33;;
7471;SDS011;3777;48.722;8.110;2022-09-17T06:23:30;3.60;;;2.20;;
7471;SDS011;3777;48.722;8.110;2022-09-17T06:26:00;4.63;;;2.30;;
7471;SDS011;3777;48.722;8.110;2022-09-17T06:28:28;4.43;;;2.27;;
7471;SDS011;3777;48.722;8.110;2022-09-17T06:30:59;2.97;;;2.33;;
7471;SDS011;3777;48.722;8.110;2022-09-17T06:33:28;5.23;;;2.47;;
7471;SDS011;3777;48.722;8.110;2022-09-17T06:35:56;4.70;;;2.60;;
7471;SDS011;3777;48.722;8.110;2022-09-17T06:38:25;6.47;;;2.73;;
7471;SDS011;3777;48.722;8.110;2022-09-17T06:40:52;6.17;;;2.87;;
7471;SDS011;3777;48.722;8.110;2022-09-17T06:43:19;5.13;;;3.03;;
7471;SDS011;3777;48.722;8.110;2022-09-17T06:45:50;5.13;;;3.07;;
7471;SDS011;3777;48.722;8.110;2022-09-17T06:48:19;7.77;;;3.17;;
7471;SDS011;3777;48.722;8.110;2022-09-17T06:50:46;4.87;;;3.10;;
7471;SDS011;3777;48.722;8.110;2022-09-17T06:53:13;4.23;;;2.90;;
7471;SDS011;3777;48.722;8.110;2022-09-17T06:55:40;9.03;;;3.20;;
7471;SDS011;3777;48.722;8.110;2022-09-17T06:58:08;4.00;;;2.80;;
7471;SDS011;3777;48.722;8.110;2022-09-17T07:00:35;6.00;;;3.00;;
7471;SDS011;3777;48.722;8.110;2022-09-17T07:03:02;6.27;;;2.80;;
7471;SDS011;3777;48.722;8.110;2022-09-17T07:05:30;4.23;;;2.50;;
7471;SDS011;3777;48.722;8.110;2022-09-17T07:07:59;6.90;;;2.67;;
7471;SDS011;3777;48.722;8.110;2022-09-17T07:10:27;6.37;;;2.57;;
7471;SDS011;3777;48.722;8.110;2022-09-17T07:12:55;5.40;;;2.80;;
7471;SDS011;3777;48.722;8.110;2022-09-17T07:15:22;4.47;;;2.47;;
7471;SDS011;3777;48.722;8.110;2022-09-17T07:17:49;4.37;;;2.93;;
7471;SDS011;3777;48.722;8.110;2022-09-17T07:20:16;4.63;;;2.60;;
7471;SDS011;3777;48.722;8.110;2022-09-17T07:22:44;5.23;;;2.53;;
7471;SDS011;3777;48.722;8.110;2022-09-17T07:25:11;5.80;;;2.63;;
7471;SDS011;3777;48.722;8.110;2022-09-17T07:27:40;4.43;;;2.50;;
7471;SDS011;3777;48.722;8.110;2022-09-17T07:30:07;4.87;;;2.97;;
7471;SDS011;3777;48.722;8.110;2022-09-17T07:32:36;7.00;;;3.40;;
7471;SDS011;3777;48.722;8.110;2022-09-17T07:35:04;4.13;;;2.80;;
7471;SDS011;3777;48.722;8.110;2022-09-17T07:37:31;8.17;;;3.50;;
7471;SDS011;3777;48.722;8.110;2022-09-17T07:39:59;9.60;;;3.50;;
7471;SDS011;3777;48.722;8.110;2022-09-17T07:42:27;4.23;;;3.20;;
7471;SDS011;3777;48.722;8.110;2022-09-17T07:44:54;5.30;;;2.80;;
7471;SDS011;3777;48.722;8.110;2022-09-17T07:47:21;6.43;;;3.30;;
7471;SDS011;3777;48.722;8.110;2022-09-17T07:49:48;6.37;;;2.87;;
7471;SDS011;3777;48.722;8.110;2022-09-17T07:52:14;4.03;;;2.50;;
7471;SDS011;3777;48.722;8.110;2022-09-17T07:54:41;5.53;;;2.87;;
7471;SDS011;3777;48.722;8.110;2022-09-17T07:57:10;5.10;;;2.67;;
7471;SDS011;3777;48.722;8.110;2022-09-17T07:59:37;6.27;;;3.03;;
7471;SDS011;3777;48.722;8.110;2022-09-17T08:02:05;4.93;;;2.90;;
7471;SDS011;3777;48.722;8.110;2022-09-17T08:04:36;5.53;;;2.67;;
7471;SDS011;3777;48.722;8.110;2022-09-17T08:07:03;4.57;;;2.60;;
7471;SDS011;3777;48.722;8.110;2022-09-17T08:09:30;5.00;;;2.60;;
7471;SDS011;3777;48.722;8.110;2022-09-17T08:11:57;5.27;;;2.83;;
7471;SDS011;3777;48.722;8.110;2022-09-17T08:14:26;5.93;;;2.70;;
7471;SDS011;3777;48.722;8.110;2022-09-17T08:16:53;4.10;;;2.47;;
7471;SDS011;3777;48.722;8.110;2022-09-17T08:19:19;6.70;;;2.77;;
7471;SDS011;3777;48.722;8.110;2022-09-17T08:21:46;7.33;;;2.97;;
7471;SDS011;3777;48.722;8.110;2022-09-17T08:24:13;6.30;;;3.03;;
7471;SDS011;3777;48.722;8.110;2022-09-17T08:26:40;3.83;;;2.80;;
7471;SDS011;3777;48.722;8.110;2022-09-17T08:29:07;4.10;;;2.90;;
7471;SDS011;3777;48.722;8.110;2022-09-17T08:31:36;6.10;;;2.60;;
7471;SDS011;3777;48.722;8.110;2022-09-17T08:34:06;4.87;;;2.77;;
7471;SDS011;3777;48.722;8.110;2022-09-17T08:36:34;5.53;;;2.60;;
7471;SDS011;3777;48.722;8.110;2022-09-17T08:39:01;4.73;;;3.00;;
7471;SDS011;3777;48.722;8.110;2022-09-17T08:41:30;9.30;;;3.77;;
7471;SDS011;3777;48.722;8.110;2022-09-17T08:44:10;5.80;;;2.83;;
7471;SDS011;3777;48.722;8.110;2022-09-17T08:46:45;5.17;;;2.80;;
7471;SDS011;3777;48.722;8.110;2022-09-17T08:49:17;5.93;;;2.67;;
7471;SDS011;3777;48.722;8.110;2022-09-17T08:51:54;4.97;;;2.60;;
7471;SDS011;3777;48.722;8.110;2022-09-17T08:54:35;5.97;;;3.00;;
7471;SDS011;3777;48.722;8.110;2022-09-17T08:57:10;6.30;;;2.70;;
7471;SDS011;3777;48.722;8.110;2022-09-17T08:59:50;4.97;;;2.30;;
7471;SDS011;3777;48.722;8.110;2022-09-17T09:02:28;4.67;;;2.50;;
7471;SDS011;3777;48.722;8.110;2022-09-17T09:05:05;4.87;;;2.73;;
7471;SDS011;3777;48.722;8.110;2022-09-17T09:07:38;7.67;;;2.60;;
7471;SDS011;3777;48.722;8.110;2022-09-17T09:10:14;8.37;;;2.57;;
7471;SDS011;3777;48.722;8.110;2022-09-17T09:12:46;5.00;;;2.60;;
7471;SDS011;3777;48.722;8.110;2022-09-17T09:15:17;5.33;;;2.50;;
7471;SDS011;3777;48.722;8.110;2022-09-17T09:17:55;6.07;;;2.50;;
7471;SDS011;3777;48.722;8.110;2022-09-17T09:20:29;7.40;;;2.97;;
7471;SDS011;3777;48.722;8.110;2022-09-17T09:23:04;4.07;;;2.60;;
7471;SDS011;3777;48.722;8.110;2022-09-17T09:25:39;4.80;;;2.60;;
7471;SDS011;3777;48.722;8.110;2022-09-17T09:28:16;6.17;;;2.40;;
7471;SDS011;3777;48.722;8.110;2022-09-17T09:31:14;5.07;;;2.60;;
7471;SDS011;3777;48.722;8.110;2022-09-17T09:33:55;6.93;;;2.77;;
7471;SDS011;3777;48.722;8.110;2022-09-17T09:36:25;4.67;;;2.60;;
7471;SDS011;3777;48.722;8.110;2022-09-17T09:38:56;6.80;;;2.70;;
7471;SDS011;3777;48.722;8.110;2022-09-17T09:41:28;6.23;;;2.50;;
7471;SDS011;3777;48.722;8.110;2022-09-17T09:44:02;7.30;;;2.80;;
7471;SDS011;3777;48.722;8.110;2022-09-17T09:46:34;4.60;;;2.40;;
7471;SDS011;3777;48.722;8.110;2022-09-17T09:49:16;5.07;;;2.60;;
7471;SDS011;3777;48.722;8.110;2022-09-17T09:51:54;3.83;;;2.20;;
7471;SDS011;3777;48.722;8.110;2022-09-17T09:54:36;6.83;;;2.67;;
7471;SDS011;3777;48.722;8.110;2022-09-17T09:57:12;5.23;;;2.50;;
7471;SDS011;3777;48.722;8.110;2022-09-17T09:59:42;4.67;;;2.50;;
7471;SDS011;3777;48.722;8.110;2022-09-17T10:02:09;4.37;;;2.30;;
7471;SDS011;3777;48.722;8.110;2022-09-17T10:04:38;7.23;;;2.97;;
7471;SDS011;3777;48.722;8.110;2022-09-17T10:07:06;9.03;;;2.30;;
7471;SDS011;3777;48.722;8.110;2022-09-17T10:09:34;4.50;;;2.30;;
7471;SDS011;3777;48.722;8.110;2022-09-17T10:12:14;4.77;;;3.10;;
7471;SDS011;3777;48.722;8.110;2022-09-17T10:14:43;5.20;;;2.20;;
7471;SDS011;3777;48.722;8.110;2022-09-17T10:17:15;4.03;;;2.13;;
7471;SDS011;3777;48.722;8.110;2022-09-17T10:19:46;6.33;;;2.40;;
7471;SDS011;3777;48.722;8.110;2022-09-17T10:22:29;5.67;;;2.20;;
7471;SDS011;3777;48.722;8.110;2022-09-17T10:24:58;4.13;;;2.00;;
7471;SDS011;3777;48.722;8.110;2022-09-17T10:27:27;5.23;;;2.10;;
7471;SDS011;3777;48.722;8.110;2022-09-17T10:29:57;4.53;;;1.83;;
7471;SDS011;3777;48.722;8.110;2022-09-17T10:32:29;3.90;;;1.70;;
7471;SDS011;3777;48.722;8.110;2022-09-17T10:34:58;2.70;;;1.60;;
7471;SDS011;3777;48.722;8.110;2022-09-17T10:37:40;3.67;;;1.57;;
7471;SDS011;3777;48.722;8.110;2022-09-17T10:40:25;5.53;;;1.80;;
7471;SDS011;3777;48.722;8.110;2022-09-17T10:43:16;4.17;;;1.63;;
7471;SDS011;3777;48.722;8.110;2022-09-17T10:45:53;6.73;;;2.17;;
7471;SDS011;3777;48.722;8.110;2022-09-17T10:48:23;5.37;;;2.10;;
7471;SDS011;3777;48.722;8.110;2022-09-17T10:50:55;5.07;;;1.80;;
7471;SDS011;3777;48.722;8.110;2022-09-17T10:53:23;5.03;;;2.10;;
7471;SDS011;3777;48.722;8.110;2022-09-17T10:55:53;5.63;;;2.10;;
7471;SDS011;3777;48.722;8.110;2022-09-17T10:58:31;4.83;;;2.00;;
7471;SDS011;3777;48.722;8.110;2022-09-17T11:01:07;4.67;;;1.90;;
7471;SDS011;3777;48.722;8.110;2022-09-17T11:03:46;4.77;;;2.00;;
7471;SDS011;3777;48.722;8.110;2022-09-17T11:06:41;3.27;;;1.67;;
7471;SDS011;3777;48.722;8.110;2022-09-17T11:09:21;5.70;;;1.40;;
7471;SDS011;3777;48.722;8.110;2022-09-17T11:12:18;4.77;;;1.57;;
7471;SDS011;3777;48.722;8.110;2022-09-17T11:14:57;4.17;;;1.50;;
7471;SDS011;3777;48.722;8.110;2022-09-17T11:17:42;4.60;;;1.70;;
7471;SDS011;3777;48.722;8.110;2022-09-17T11:20:24;3.40;;;1.60;;
7471;SDS011;3777;48.722;8.110;2022-09-17T11:23:14;5.53;;;1.80;;
7471;SDS011;3777;48.722;8.110;2022-09-17T11:26:17;4.73;;;1.63;;
7471;SDS011;3777;48.722;8.110;2022-09-17T11:28:56;2.87;;;1.57;;
7471;SDS011;3777;48.722;8.110;2022-09-17T11:31:33;5.73;;;1.63;;
7471;SDS011;3777;48.722;8.110;2022-09-17T11:34:16;3.60;;;1.50;;
7471;SDS011;3777;48.722;8.110;2022-09-17T11:36:57;5.97;;;2.00;;
7471;SDS011;3777;48.722;8.110;2022-09-17T11:39:32;5.87;;;2.10;;
7471;SDS011;3777;48.722;8.110;2022-09-17T11:42:06;2.93;;;1.60;;
7471;SDS011;3777;48.722;8.110;2022-09-17T11:44:37;4.37;;;1.87;;
7471;SDS011;3777;48.722;8.110;2022-09-17T11:47:09;4.60;;;1.87;;
7471;SDS011;3777;48.722;8.110;2022-09-17T11:49:41;4.23;;;1.83;;
7471;SDS011;3777;48.722;8.110;2022-09-17T11:52:16;5.53;;;1.80;;
7471;SDS011;3777;48.722;8.110;2022-09-17T11:54:51;4.73;;;1.60;;
7471;SDS011;3777;48.722;8.110;2022-09-17T11:57:24;4.47;;;1.70;;
7471;SDS011;3777;48.722;8.110;2022-09-17T11:59:54;6.17;;;1.80;;
7471;SDS011;3777;48.722;8.110;2022-09-17T12:02:26;3.43;;;1.70;;
7471;SDS011;3777;48.722;8.110;2022-09-17T12:05:04;4.40;;;1.73;;
7471;SDS011;3777;48.722;8.110;2022-09-17T12:07:38;5.20;;;1.60;;
7471;SDS011;3777;48.722;8.110;2022-09-17T12:13:13;6.37;;;2.00;;
7471;SDS011;3777;48.722;8.110;2022-09-17T12:15:45;7.23;;;2.30;;
7471;SDS011;3777;48.722;8.110;2022-09-17T12:18:17;3.63;;;1.97;;
7471;SDS011;3777;48.722;8.110;2022-09-17T12:20:53;3.67;;;1.90;;
7471;SDS011;3777;48.722;8.110;2022-09-17T12:23:25;4.20;;;1.70;;
7471;SDS011;3777;48.722;8.110;2022-09-17T12:26:13;6.67;;;2.17;;
7471;SDS011;3777;48.722;8.110;2022-09-17T12:28:56;5.43;;;2.27;;
7471;SDS011;3777;48.722;8.110;2022-09-17T12:31:31;3.83;;;1.90;;
7471;SDS011;3777;48.722;8.110;2022-09-17T12:34:10;3.20;;;1.50;;
7471;SDS011;3777;48.722;8.110;2022-09-17T12:36:50;3.70;;;1.50;;
7471;SDS011;3777;48.722;8.110;2022-09-17T12:39:36;3.03;;;1.67;;
7471;SDS011;3777;48.722;8.110;2022-09-17T12:45:20;2.53;;;1.47;;
7471;SDS011;3777;48.722;8.110;2022-09-17T12:51:01;2.30;;;1.30;;
7471;SDS011;3777;48.722;8.110;2022-09-17T12:53:45;2.87;;;1.40;;
7471;SDS011;3777;48.722;8.110;2022-09-17T12:56:22;2.20;;;1.40;;
7471;SDS011;3777;48.722;8.110;2022-09-17T12:59:01;1.97;;;1.50;;
7471;SDS011;3777;48.722;8.110;2022-09-17T13:01:34;3.47;;;1.60;;
7471;SDS011;3777;48.722;8.110;2022-09-17T13:04:10;3.03;;;1.47;;
7471;SDS011;3777;48.722;8.110;2022-09-17T13:06:58;4.10;;;1.50;;
7471;SDS011;3777;48.722;8.110;2022-09-17T13:09:58;2.63;;;1.40;;
7471;SDS011;3777;48.722;8.110;2022-09-17T13:12:36;5.90;;;1.60;;
7471;SDS011;3777;48.722;8.110;2022-09-17T13:18:07;3.53;;;1.60;;
7471;SDS011;3777;48.722;8.110;2022-09-17T13:20:42;2.93;;;1.33;;
7471;SDS011;3777;48.722;8.110;2022-09-17T13:23:27;2.80;;;1.40;;
7471;SDS011;3777;48.722;8.110;2022-09-17T13:26:00;2.73;;;1.37;;
7471;SDS011;3777;48.722;8.110;2022-09-17T13:28:39;2.27;;;1.40;;
7471;SDS011;3777;48.722;8.110;2022-09-17T13:31:08;2.07;;;1.40;;
7471;SDS011;3777;48.722;8.110;2022-09-17T13:33:51;2.77;;;1.50;;
7471;SDS011;3777;48.722;8.110;2022-09-17T13:39:10;3.50;;;1.73;;
7471;SDS011;3777;48.722;8.110;2022-09-17T13:42:00;4.70;;;1.90;;
7471;SDS011;3777;48.722;8.110;2022-09-17T13:44:32;6.13;;;1.90;;
7471;SDS011;3777;48.722;8.110;2022-09-17T13:47:08;3.30;;;1.80;;
7471;SDS011;3777;48.722;8.110;2022-09-17T13:49:45;5.67;;;2.00;;
7471;SDS011;3777;48.722;8.110;2022-09-17T13:52:26;5.40;;;2.00;;
7471;SDS011;3777;48.722;8.110;2022-09-17T13:54:58;3.70;;;1.93;;
7471;SDS011;3777;48.722;8.110;2022-09-17T13:57:26;5.17;;;1.90;;
7471;SDS011;3777;48.722;8.110;2022-09-17T13:59:57;5.13;;;1.80;;
7471;SDS011;3777;48.722;8.110;2022-09-17T14:02:30;3.50;;;1.90;;
7471;SDS011;3777;48.722;8.110;2022-09-17T14:08:28;2.90;;;1.60;;
7471;SDS011;3777;48.722;8.110;2022-09-17T14:10:57;2.23;;;1.50;;
7471;SDS011;3777;48.722;8.110;2022-09-17T14:13:27;5.53;;;1.90;;
7471;SDS011;3777;48.722;8.110;2022-09-17T14:18:59;3.60;;;1.77;;
7471;SDS011;3777;48.722;8.110;2022-09-17T14:21:31;4.00;;;1.90;;
7471;SDS011;3777;48.722;8.110;2022-09-17T14:24:01;3.23;;;1.70;;
7471;SDS011;3777;48.722;8.110;2022-09-17T14:26:41;6.07;;;2.10;;
7471;SDS011;3777;48.722;8.110;2022-09-17T14:29:27;2.87;;;1.70;;
7471;SDS011;3777;48.722;8.110;2022-09-17T14:32:05;6.37;;;1.93;;
7471;SDS011;3777;48.722;8.110;2022-09-17T14:34:33;5.53;;;2.07;;
7471;SDS011;3777;48.722;8.110;2022-09-17T14:37:02;4.97;;;1.70;;
7471;SDS011;3777;48.722;8.110;2022-09-17T14:39:35;4.27;;;1.70;;
7471;SDS011;3777;48.722;8.110;2022-09-17T14:42:04;3.53;;;1.77;;
7471;SDS011;3777;48.722;8.110;2022-09-17T14:44:43;4.97;;;1.97;;
7471;SDS011;3777;48.722;8.110;2022-09-17T14:47:16;4.13;;;1.90;;
7471;SDS011;3777;48.722;8.110;2022-09-17T14:49:45;4.17;;;1.70;;
7471;SDS011;3777;48.722;8.110;2022-09-17T14:52:21;4.93;;;1.70;;
7471;SDS011;3777;48.722;8.110;2022-09-17T14:57:52;5.80;;;1.90;;
7471;SDS011;3777;48.722;8.110;2022-09-17T15:00:21;2.77;;;1.33;;
7471;SDS011;3777;48.722;8.110;2022-09-17T15:02:49;2.73;;;1.40;;
7471;SDS011;3777;48.722;8.110;2022-09-17T15:05:23;3.40;;;1.50;;
7471;SDS011;3777;48.722;8.110;2022-09-17T15:08:03;3.00;;;1.70;;
7471;SDS011;3777;48.722;8.110;2022-09-17T15:10:33;4.20;;;1.77;;
7471;SDS011;3777;48.722;8.110;2022-09-17T15:13:08;2.03;;;1.40;;
7471;SDS011;3777;48.722;8.110;2022-09-17T15:15:38;4.17;;;1.60;;
7471;SDS011;3777;48.722;8.110;2022-09-17T15:18:05;2.70;;;1.53;;
7471;SDS011;3777;48.722;8.110;2022-09-17T15:20:32;2.80;;;1.30;;
7471;SDS011;3777;48.722;8.110;2022-09-17T15:23:02;8.23;;;3.40;;
7471;SDS011;3777;48.722;8.110;2022-09-17T15:25:35;6.07;;;3.20;;
7471;SDS011;3777;48.722;8.110;2022-09-17T15:28:07;4.87;;;1.70;;
7471;SDS011;3777;48.722;8.110;2022-09-17T15:30:42;5.13;;;1.90;;
7471;SDS011;3777;48.722;8.110;2022-09-17T15:33:10;3.20;;;1.50;;
7471;SDS011;3777;48.722;8.110;2022-09-17T15:35:37;4.50;;;1.63;;
7471;SDS011;3777;48.722;8.110;2022-09-17T15:38:18;3.03;;;1.40;;
7471;SDS011;3777;48.722;8.110;2022-09-17T15:40:46;3.40;;;1.50;;
7471;SDS011;3777;48.722;8.110;2022-09-17T15:43:15;3.63;;;1.80;;
7471;SDS011;3777;48.722;8.110;2022-09-17T15:45:46;3.00;;;1.60;;
7471;SDS011;3777;48.722;8.110;2022-09-17T15:48:19;3.23;;;1.60;;
7471;SDS011;3777;48.722;8.110;2022-09-17T15:50:50;3.17;;;1.43;;
7471;SDS011;3777;48.722;8.110;2022-09-17T15:53:21;3.27;;;1.47;;
7471;SDS011;3777;48.722;8.110;2022-09-17T15:56:00;4.40;;;1.60;;
7471;SDS011;3777;48.722;8.110;2022-09-17T15:58:35;3.23;;;1.40;;
7471;SDS011;3777;48.722;8.110;2022-09-17T16:06:57;3.83;;;1.70;;
7471;SDS011;3777;48.722;8.110;2022-09-17T16:09:46;4.23;;;1.73;;
7471;SDS011;3777;48.722;8.110;2022-09-17T16:12:15;6.50;;;2.20;;
7471;SDS011;3777;48.722;8.110;2022-09-17T16:14:48;5.13;;;1.70;;
7471;SDS011;3777;48.722;8.110;2022-09-17T16:20:08;2.70;;;1.17;;
7471;SDS011;3777;48.722;8.110;2022-09-17T16:22:39;3.50;;;1.10;;